Flight Track Log - Related Links

Times and Time Zones

All times are in EDT time to prevent confusion due to time zone crossing. See the RPA3392 flight status page for this flight to view local times or setup timezone preferences in your user account.

Time Position Orientation Groundspeed Altitude Reporting Facility
EDT Latitude Longitude Course Direction KTS km/h feet Rate Location/Type
Fri 18:17:18 44.9000 -93.2333 117° Southeast 159 295 2,000  Level Minneapolis TRACON
Fri 18:18:13 44.9375 -93.2469 346° North 156 290 3,500 1,862 Climbing Minneapolis Center
Fri 18:19:00 44.7556 -92.7614 111° Southeast  Level Estimated
Fri 18:19:14 44.9856 -93.2208 21° North 205 380 5,600  Level Minneapolis Center
Fri 18:20:00 44.7131 -92.6083 113° Southeast  Level Estimated
Fri 18:20:16 44.9678 -93.1456 108° East 259 480 7,300  Level Minneapolis Center
Fri 18:21:00 44.6704 -92.4555 125° Southeast  Level Estimated
Fri 18:21:18 44.9200 -93.0383 122° Southeast 266 492 10,800  Level Minneapolis Center
Fri 18:22:00 44.6274 -92.3030 117° Southeast  Level Estimated
Fri 18:22:20 44.8797 -92.9356 119° Southeast 295 546 13,400  Level Minneapolis Center
Fri 18:23:22 44.8378 -92.8300 119° Southeast 307 568 15,800 2,129 Climbing Minneapolis Center
Fri 18:24:24 44.7931 -92.7175 119° Southeast 328 607 17,800 2,177 Climbing Minneapolis Center
Fri 18:25:26 44.7367 -92.5825 120° Southeast 333 616 20,300 2,177 Climbing Minneapolis Center
Fri 18:26:28 44.6903 -92.4647 119° Southeast 341 631 22,300 1,854 Climbing Minneapolis Center
Fri 18:27:29 44.6411 -92.3447 120° Southeast 350 649 24,100 1,659 Climbing Minneapolis Center
Fri 18:28:31 44.5911 -92.2208 120° Southeast 361 668 25,700 1,403 Climbing Minneapolis Center
Fri 18:29:33 44.5406 -92.0931 119° Southeast 372 689 27,000 1,258 Climbing Minneapolis Center
Fri 18:30:35 44.4858 -91.9636 121° Southeast 385 713 28,300 1,161 Climbing Minneapolis Center
Fri 18:31:37 44.4442 -91.8233 113° Southeast 390 723 29,400 1,210 Climbing Minneapolis Center
Fri 18:32:39 44.3983 -91.6486 110° East 399 739 30,800 1,161 Climbing Minneapolis Center
Fri 18:33:41 44.3672 -91.5339 111° Southeast 400 740 31,800 1,065 Climbing Minneapolis Center
Fri 18:34:43 44.3208 -91.3606 110° East 399 739 33,000 581 Climbing Minneapolis Center
Fri 18:35:45 44.2808 -91.2094 110° East 404 748 33,000  Level Minneapolis Center
Fri 18:36:47 44.2386 -91.0539 111° Southeast 422 782 33,000  Level Minneapolis Center
Fri 18:38:01 44.1961 -90.8925 110° East 440 814 33,000  Level Minneapolis Center
Fri 18:39:03 44.1339 -90.6653 111° Southeast 450 834 33,000  Level Minneapolis Center
Fri 18:40:17 44.0900 -90.5097 111° Southeast 451 835 33,000  Level Minneapolis Center
Fri 18:41:20 44.0294 -90.2922 111° Southeast 451 835 33,000  Level Minneapolis Center
Fri 18:42:22 43.9836 -90.1306 111° Southeast 450 834 33,000  Level Minneapolis Center
Fri 18:43:24 43.9386 -89.9681 111° Southeast 450 834 33,000  Level Minneapolis Center
Fri 18:44:26 43.8922 -89.8081 112° Southeast 449 832 33,000  Level Minneapolis Center
Fri 18:45:28 43.8467 -89.6481 111° Southeast 446 826 33,000  Level Minneapolis Center
Fri 18:46:29 43.8078 -89.5142 112° Southeast 450 834 33,000  Level Minneapolis Center
Fri 18:47:32 43.7464 -89.3006 112° Southeast 448 830 33,000  Level Minneapolis Center
Fri 18:48:34 43.7008 -89.1411 112° Southeast 446 826 33,000  Level Minneapolis Center
Fri 18:49:36 43.6525 -88.9825 113° Southeast 446 826 33,000  Level Minneapolis Center
Fri 18:50:38 43.6058 -88.8239 112° Southeast 446 826 33,000  Level Minneapolis Center
Fri 18:50:59 43.5908 -88.7703 111° Southeast 447 827 33,000  Level Chicago Center
Fri 18:52:01 43.5425 -88.6106 113° Southeast 448 830 33,000  Level Chicago Center
Fri 18:53:03 43.4919 -88.4450 113° Southeast 450 834 33,000  Level Chicago Center
Fri 18:54:05 43.4433 -88.2811 112° Southeast 450 834 33,000  Level Chicago Center
Fri 18:55:07 43.3867 -88.0978 113° Southeast 447 827 33,000  Level Chicago Center
Fri 18:56:09 43.3375 -87.9394 113° Southeast 447 827 33,000  Level Chicago Center
Fri 18:57:11 43.2900 -87.7822 112° Southeast 447 827 33,000  Level Chicago Center
Fri 18:58:14 43.2397 -87.6239 114° Southeast 451 835 33,000  Level Chicago Center
Fri 18:59:14 43.1919 -87.4664 113° Southeast 449 832 33,000  Level Chicago Center
Fri 19:00:16 43.1419 -87.3128 114° Southeast 453 838 33,000  Level Chicago Center
Fri 19:01:18 43.0944 -87.1558 112° Southeast 450 834 33,000  Level Chicago Center
Fri 19:02:20 43.0336 -86.9669 114° Southeast 453 838 33,000  Level Chicago Center
Fri 19:03:22 42.9836 -86.8100 113° Southeast 454 840 33,000  Level Chicago Center
Fri 19:04:24 42.9342 -86.6558 114° Southeast 448 830 33,000  Level Chicago Center
Fri 19:05:26 42.8842 -86.5033 114° Southeast 445 824 33,000  Level Chicago Center
Fri 19:06:28 42.8336 -86.3497 114° Southeast 448 830 33,000  Level Chicago Center
Fri 19:07:30 42.7725 -86.1661 114° Southeast 450 834 33,000  Level Chicago Center
Fri 19:08:32 42.7222 -86.0114 114° Southeast 453 838 33,000  Level Chicago Center
Fri 19:09:34 42.6714 -85.8561 114° Southeast 455 843 33,000  Level Chicago Center
Fri 19:10:36 42.6197 -85.7017 114° Southeast 455 843 33,000  Level Chicago Center
Fri 19:11:38 42.5692 -85.5483 114° Southeast 450 834 33,000  Level Chicago Center
Fri 19:12:40 42.5072 -85.3636 114° Southeast 451 835 33,000  Level Chicago Center
Fri 19:13:42 42.4550 -85.2100 115° Southeast 452 837 33,000  Level Chicago Center
Fri 19:14:44 42.4028 -85.0561 115° Southeast 453 838 33,000  Level Chicago Center
Fri 19:15:46 42.3500 -84.9031 115° Southeast 452 837 33,000  Level Chicago Center
Fri 19:16:48 42.2967 -84.7506 115° Southeast 450 834 33,000  Level Chicago Center
Fri 19:17:36 42.2439 -84.6086 117° Southeast 442 819 33,000  Level Cleveland Center
Fri 19:18:36 42.1944 -84.4653 115° Southeast 442 819 33,000  Level Cleveland Center
Fri 19:19:36 42.1450 -84.3250 115° Southeast 431 798 33,000  Level Cleveland Center
Fri 19:20:36 42.1008 -84.2019 116° Southeast 415 769 33,000  Level Cleveland Center
Fri 19:21:36 42.0531 -84.0622 115° Southeast 415 769 33,000  Level Cleveland Center
Fri 19:22:36 42.0028 -83.9281 117° Southeast 410 760 33,000  Level Cleveland Center
Fri 19:23:36 41.9547 -83.7858 114° Southeast 410 760 33,000  Level Cleveland Center
Fri 19:24:36 41.9044 -83.6494 116° Southeast 410 760 33,000  Level Cleveland Center
Fri 19:25:36 41.8539 -83.5103 116° Southeast 410 760 33,000  Level Cleveland Center
Fri 19:26:36 41.8050 -83.3744 116° Southeast 410 760 33,000  Level Cleveland Center
Fri 19:27:36 41.7542 -83.2331 116° Southeast 410 760 33,000  Level Cleveland Center
Fri 19:28:36 41.7031 -83.0975 117° Southeast 410 760 33,000  Level Cleveland Center
Fri 19:29:36 41.6517 -82.9592 116° Southeast 415 769 33,000  Level Cleveland Center
Fri 19:30:36 41.5964 -82.8044 115° Southeast 415 769 33,000  Level Cleveland Center
Fri 19:31:36 41.5450 -82.6667 116° Southeast 410 760 33,000  Level Cleveland Center
Fri 19:32:36 41.4953 -82.5264 115° Southeast 415 769 33,000  Level Cleveland Center
Fri 19:33:36 41.4411 -82.3892 118° Southeast 415 769 33,000  Level Cleveland Center
Fri 19:34:36 41.3911 -82.2522 116° Southeast 415 769 33,000  Level Cleveland Center
Fri 19:35:36 41.3222 -82.1258 126° Southeast 415 769 33,000  Level Cleveland Center
Fri 19:36:36 41.2336 -82.0328 142° Southeast 406 752 33,000  Level Cleveland Center
Fri 19:37:36 41.1431 -81.9369 141° Southeast 412 763 33,000  Level Cleveland Center
Fri 19:38:36 41.0461 -81.8469 145° Southeast 429 795 33,000  Level Cleveland Center
Fri 19:39:36 40.9533 -81.7514 142° Southeast 422 782 33,000  Level Cleveland Center
Fri 19:40:36 40.8625 -81.6594 143° Southeast 422 782 33,000  Level Cleveland Center
Fri 19:41:36 40.7717 -81.5675 143° Southeast 422 782 33,000  Level Cleveland Center
Fri 19:42:36 40.6808 -81.4728 142° Southeast 422 782 33,000  Level Cleveland Center
Fri 19:43:36 40.6025 -81.3542 131° Southeast 422 782 33,000  Level Cleveland Center
Fri 19:44:36 40.5322 -81.2333 127° Southeast 417 772 33,000  Level Cleveland Center
Fri 19:45:36 40.4558 -81.1097 129° Southeast 422 782 33,000  Level Cleveland Center
Fri 19:46:36 40.3811 -80.9919 130° Southeast 428 793 33,000  Level Cleveland Center
Fri 19:47:36 40.3086 -80.8744 129° Southeast 428 793 33,000  Level Cleveland Center
Fri 19:48:36 40.2400 -80.7625 129° Southeast 428 793 33,000  Level Cleveland Center
Fri 19:49:36 40.1631 -80.6456 131° Southeast 428 793 33,000  Level Cleveland Center
Fri 19:50:36 40.0858 -80.5233 130° Southeast 428 793 33,000  Level Cleveland Center
Fri 19:51:36 40.0108 -80.4042 129° Southeast 428 793 33,000  Level Cleveland Center
Fri 19:52:36 39.9314 -80.2825 130° Southeast 428 793 33,000  Level Cleveland Center
Fri 19:54:23 39.7953 -80.0692 130° Southeast 421 779 33,000  Level Washington Center
Fri 19:55:25 39.7183 -79.9511 130° Southeast 421 779 33,000  Level Washington Center
Fri 19:56:25 39.6372 -79.8278 130° Southeast 426 789 33,000  Level Washington Center
Fri 19:57:23 39.5600 -79.7100 130° Southeast 432 800 33,000 -958 Level Washington Center
Fri 19:58:24 39.4828 -79.5900 130° Southeast 432 800 31,100 -992 Descending Washington Center
Fri 19:59:24 39.4053 -79.4703 130° Southeast 432 800 31,000 -744 Descending Washington Center
Fri 20:00:25 39.3236 -79.3506 131° Southeast 432 800 29,600 -1,714 Descending Washington Center
Fri 20:01:23 39.2467 -79.2097 125° Southeast 432 800 27,600 -1,983 Descending Washington Center
Fri 20:02:23 39.2322 -79.0617 97° East 409 758 25,700 -1,835 Descending Washington Center
Fri 20:03:24 39.2197 -78.9164 96° East 404 748 23,900 -1,736 Descending Washington Center
Fri 20:04:24 39.2047 -78.7764 98° East 399 739 22,200 -1,686 Descending Washington Center
Fri 20:05:25 39.1917 -78.6447 97° East 387 716 20,500 -1,636 Descending Washington Center
Fri 20:06:25 39.1783 -78.5100 97° East 382 708 18,900 -1,525 Descending Washington Center
Fri 20:07:23 39.1644 -78.3811 98° East 375 695 17,500 -1,412 Descending Washington Center
Fri 20:08:24 39.1381 -78.2597 106° East 358 663 16,100 -1,140 Descending Washington Center
Fri 20:09:24 39.1094 -78.1464 108° East 348 644 15,200 -992 Descending Washington Center
Fri 20:10:25 39.0806 -78.0303 108° East 337 624 14,100 -1,150 Descending Washington Center
Fri 20:11:24 39.0514 -77.9197 109° East 331 613 12,900 -1,200 Descending Washington Center
Fri 20:12:25 39.0242 -77.8147 108° East 320 592 11,700 -942 Descending Washington Center
Fri 20:13:25 39.0008 -77.7206 108° East 307 568 11,000 -966 Descending Washington Center
Fri 20:14:23 38.9736 -77.6156 108° East 296 549 9,800 -1,350 Descending Washington Center
Fri 20:14:45 38.9667 -77.5667 100° East 275 509 9,200 -1,171 Descending Potomac TRACON
Fri 20:15:45 38.9500 -77.4833 104° East 243 451 8,200 -992 Descending Potomac TRACON
Fri 20:16:46 38.9833 -77.4167 57° Northeast 204 378 7,200 -1,041 Descending Potomac TRACON
Fri 20:17:46 39.0000 -77.3500 72° East 194 359 6,100 -1,000 Descending Potomac TRACON
Fri 20:18:46 39.0167 -77.3000 67° East 176 327 5,200 -1,143 Descending Potomac TRACON
Fri 20:19:52 39.0167 -77.2500 90° East 173 320 3,700 -952 Descending Potomac TRACON
Fri 20:20:52 38.9833 -77.2000 131° Southeast 165 306 3,200 -522 Descending Potomac TRACON
Fri 20:21:47 38.9667 -77.1500 113° Southeast 162 299 2,700 -678 Descending Potomac TRACON
Fri 20:22:47 38.9333 -77.1167 142° Southeast 163 303 1,900 -800 Descending Potomac TRACON

Login

Don't have an account? Register now (free) for customized features, flight alerts, and more!